Time;durP1;ratioP1;P1;durP2;ratioP2;P2;SDS_P1;SDS_P2;PMS_P1;PMS_P2;Temp;Humidity;BMP_temperature;BMP_pressure;BME280_temperature;BME280_humidity;BME280_pressure;Samples;Min_cycle;Max_cycle;Signal;HPM_P1;HPM_P2
2024/03/16 00:00:14;;;;;;;;;;;;;;;16.53;46.22;101149.88;5059148;28;1035;-48
2024/03/16 00:02:39;;;;;;;;;;;;;;;17.48;43.92;101141.81;5056402;28;1003;-47
2024/03/16 00:05:05;;;;;;;;;;;;;;;16.45;46.01;101148.72;5030126;28;1064;-50
2024/03/16 00:07:30;;;;;;;;;;;;;;;15.97;47.34;101141.97;5058487;28;1011;-48
2024/03/16 00:09:56;;;;;;;;;;;;;;;15.64;48.28;101141.38;5044470;28;884;-51
2024/03/16 00:12:22;;;;;;;;;;;;;;;15.50;48.51;101139.59;5053762;28;1102;-48
2024/03/16 00:14:50;;;;;;;;;;;;;;;16.36;46.84;101147.50;5046506;28;2698;-49
2024/03/16 00:17:17;;;;;;;;;;;;;;;17.53;43.96;101144.13;5054189;28;1906;-49
2024/03/16 00:19:45;;;;;;;;;;;;;;;16.57;45.95;101144.38;5049754;28;1131;-49
2024/03/16 00:22:11;;;;;;;;;;;;;;;16.03;47.28;101139.81;5043627;28;1107;-48
2024/03/16 00:24:36;;;;;;;;;;;;;;;15.76;47.88;101139.75;5048198;28;1082;-49
2024/03/16 00:27:02;;;;;;;;;;;;;;;15.47;48.39;101142.44;5045190;28;1261;-50
2024/03/16 00:29:28;;;;;;;;;;;;;;;16.40;46.75;101146.34;5058209;28;1143;-46
2024/03/16 00:31:53;;;;;;;;;;;;;;;17.36;44.11;101146.19;5045505;28;1123;-49
2024/03/16 00:34:19;;;;;;;;;;;;;;;16.40;46.51;101143.69;5042418;28;898;-48
2024/03/16 00:36:44;;;;;;;;;;;;;;;15.94;47.29;101142.19;5056180;28;1055;-49
2024/03/16 00:39:23;;;;;;;;;;;;;;;15.61;48.20;101146.88;5057431;28;1973;-51
2024/03/16 00:41:49;;;;;;;;;;;;;;;15.42;48.83;101150.66;5058401;28;1175;-50
2024/03/16 00:44:14;;;;;;;;;;;;;;;16.38;46.89;101145.59;5058236;28;2357;-47
2024/03/16 00:46:40;;;;;;;;;;;;;;;17.47;44.10;101148.06;5058282;28;967;-49
2024/03/16 00:49:05;;;;;;;;;;;;;;;16.45;45.96;101144.22;5057819;28;1023;-49
2024/03/16 00:51:32;;;;;;;;;;;;;;;15.98;47.06;101143.72;5058309;28;1127;-50
2024/03/16 00:53:58;;;;;;;;;;;;;;;15.66;47.84;101144.81;5058152;28;1011;-51
2024/03/16 00:56:24;;;;;;;;;;;;;;;15.41;48.77;101141.03;5057989;28;1054;-49
2024/03/16 00:58:49;;;;;;;;;;;;;;;16.70;45.95;101137.28;5057635;28;1996;-45
2024/03/16 01:01:15;;;;;;;;;;;;;;;17.23;44.28;101135.56;5057849;28;1027;-47
2024/03/16 01:03:40;;;;;;;;;;;;;;;16.25;46.58;101137.56;5058082;28;1102;-49
2024/03/16 01:06:06;;;;;;;;;;;;;;;15.94;47.47;101137.75;5058285;28;996;-51
2024/03/16 01:08:32;;;;;;;;;;;;;;;15.60;48.49;101134.59;5057664;28;1078;-48
2024/03/16 01:10:57;;;;;;;;;;;;;;;15.41;48.38;101139.22;5058293;28;877;-50
2024/03/16 01:13:23;;;;;;;;;;;;;;;16.92;45.50;101137.63;5056659;28;2412;-48
2024/03/16 01:15:49;;;;;;;;;;;;;;;17.03;44.74;101129.78;5057779;28;1202;-49
2024/03/16 01:18:14;;;;;;;;;;;;;;;16.22;46.48;101132.47;5057533;28;1973;-47
2024/03/16 01:20:44;;;;;;;;;;;;;;;15.77;47.73;101125.53;5057078;28;1064;-48
2024/03/16 01:23:09;;;;;;;;;;;;;;;15.55;48.46;101127.75;5057334;28;942;-49
2024/03/16 01:25:35;;;;;;;;;;;;;;;15.47;48.38;101131.81;5057646;28;1159;-47
2024/03/16 01:28:00;;;;;;;;;;;;;;;16.89;45.58;101136.91;5057336;28;1120;-50
2024/03/16 01:30:26;;;;;;;;;;;;;;;17.00;44.59;101130.84;5057520;28;1175;-50
2024/03/16 01:32:51;;;;;;;;;;;;;;;16.16;46.85;101126.59;5089976;28;1143;-52
2024/03/16 01:35:17;;;;;;;;;;;;;;;15.82;47.64;101130.56;5055591;28;1587;-49
2024/03/16 01:37:42;;;;;;;;;;;;;;;15.47;48.59;101131.81;5057326;28;1906;-51
2024/03/16 01:40:09;;;;;;;;;;;;;;;15.39;48.65;101127.00;5057171;28;1120;-48
2024/03/16 01:42:34;;;;;;;;;;;;;;;16.86;45.29;101130.94;5057261;28;1094;-48
2024/03/16 01:45:07;;;;;;;;;;;;;;;17.41;43.94;101127.22;5046255;28;2499;-52
2024/03/16 01:47:32;;;;;;;;;;;;;;;16.28;46.40;101124.94;5056937;28;1031;-48
2024/03/16 01:49:58;;;;;;;;;;;;;;;15.81;47.51;101123.56;5056628;28;1012;-51
2024/03/16 01:52:23;;;;;;;;;;;;;;;15.64;48.10;101131.63;5057247;28;1039;-50
2024/03/16 01:54:49;;;;;;;;;;;;;;;15.37;48.55;101129.75;5055562;28;1075;-50
2024/03/16 01:57:14;;;;;;;;;;;;;;;16.30;46.74;101143.44;5056960;28;1906;-50
2024/03/16 01:59:41;;;;;;;;;;;;;;;17.47;44.04;101126.78;5057130;28;1185;-49
2024/03/16 02:02:10;;;;;;;;;;;;;;;16.68;45.37;101133.03;5055731;28;1197;-47
2024/03/16 02:04:36;;;;;;;;;;;;;;;15.99;47.08;101130.38;5055672;28;1160;-48
2024/03/16 02:07:08;;;;;;;;;;;;;;;15.70;47.89;101135.69;5056830;28;1111;-48
2024/03/16 02:09:34;;;;;;;;;;;;;;;15.47;48.15;101138.00;5056635;28;995;-48
2024/03/16 02:11:59;;;;;;;;;;;;;;;15.32;48.80;101137.13;5056521;28;1091;-46
2024/03/16 02:14:25;;;;;;;;;;;;;;;16.85;45.51;101139.88;5061189;28;2586;-49
2024/03/16 02:16:54;;;;;;;;;;;;;;;17.20;44.33;101131.28;5056672;28;1043;-50
2024/03/16 02:19:20;;;;;;;;;;;;;;;16.25;46.32;101135.78;5056248;28;1199;-51
2024/03/16 02:21:45;;;;;;;;;;;;;;;15.79;47.37;101135.13;5056423;28;1175;-49
2024/03/16 02:24:11;;;;;;;;;;;;;;;15.59;48.16;101138.16;5056480;28;1011;-49
2024/03/16 02:26:36;;;;;;;;;;;;;;;15.78;47.70;101136.06;5056559;28;1071;-49
2024/03/16 02:29:02;;;;;;;;;;;;;;;17.21;44.44;101145.44;5056058;28;999;-48
2024/03/16 02:31:28;;;;;;;;;;;;;;;16.81;45.25;101141.03;5056345;28;1201;-47
2024/03/16 02:33:54;;;;;;;;;;;;;;;16.07;46.74;101136.97;5056592;28;1015;-51
2024/03/16 02:36:19;;;;;;;;;;;;;;;15.71;47.56;101141.84;5056294;28;1013;-50
2024/03/16 02:38:45;;;;;;;;;;;;;;;15.46;48.25;101152.19;5055912;28;1910;-50
2024/03/16 02:41:11;;;;;;;;;;;;;;;15.42;48.67;101150.66;5056319;28;1086;-50
2024/03/16 02:43:37;;;;;;;;;;;;;;;16.90;45.17;101151.00;5055731;28;1951;-48
2024/03/16 02:46:05;;;;;;;;;;;;;;;17.15;44.14;101156.50;5056089;28;1067;-52
2024/03/16 02:48:30;;;;;;;;;;;;;;;16.25;46.47;101150.84;5056334;28;1058;-50
2024/03/16 02:50:56;;;;;;;;;;;;;;;15.88;47.38;101151.41;5055884;28;1047;-47
2024/03/16 02:53:22;;;;;;;;;;;;;;;15.55;48.30;101153.41;5056089;28;1107;-49
2024/03/16 02:55:47;;;;;;;;;;;;;;;16.18;47.17;101157.53;5056060;28;1098;-49
2024/03/16 02:58:13;;;;;;;;;;;;;;;17.44;43.95;101158.94;5055687;28;1991;-49
2024/03/16 03:00:38;;;;;;;;;;;;;;;16.56;45.49;101162.13;5055299;28;1075;-50
2024/03/16 03:03:06;;;;;;;;;;;;;;;15.91;46.96;101167.97;5055973;28;1178;-50
2024/03/16 03:05:32;;;;;;;;;;;;;;;15.70;47.57;101164.03;5056168;28;1007;-48
2024/03/16 03:07:57;;;;;;;;;;;;;;;15.49;47.88;101169.72;5055763;28;996;-49
2024/03/16 03:10:23;;;;;;;;;;;;;;;15.97;47.39;101165.88;5055952;28;1059;-49
2024/03/16 03:12:49;;;;;;;;;;;;;;;17.30;44.27;101173.22;5055634;28;1111;-48
2024/03/16 03:15:15;;;;;;;;;;;;;;;16.99;44.58;101165.50;5055680;28;2663;-49
2024/03/16 03:17:40;;;;;;;;;;;;;;;16.19;46.34;101168.03;5055763;28;1977;-48
2024/03/16 03:20:08;;;;;;;;;;;;;;;15.81;47.29;101164.22;5056189;28;1110;-51
2024/03/16 03:22:34;;;;;;;;;;;;;;;15.57;48.04;101166.56;5055524;28;1127;-47
2024/03/16 03:24:59;;;;;;;;;;;;;;;15.28;48.76;101168.28;5055747;28;1114;-50
2024/03/16 03:27:25;;;;;;;;;;;;;;;16.52;46.03;101173.88;5056300;28;1091;-51
2024/03/16 03:29:50;;;;;;;;;;;;;;;17.24;44.09;101180.66;5055838;28;1622;-48
2024/03/16 03:32:16;;;;;;;;;;;;;;;16.15;46.62;101182.44;5055884;28;1051;-47
2024/03/16 03:34:41;;;;;;;;;;;;;;;15.74;47.64;101179.66;5055161;28;1115;-46
2024/03/16 03:37:07;;;;;;;;;;;;;;;15.49;47.88;101183.81;5036940;28;1911;-50
2024/03/16 03:39:33;;;;;;;;;;;;;;;15.65;47.91;101182.84;5048263;28;1063;-48
2024/03/16 03:41:58;;;;;;;;;;;;;;;17.10;44.67;101178.94;5037041;28;1107;-49
2024/03/16 03:44:35;;;;;;;;;;;;;;;17.24;44.01;101185.09;5036088;28;1122;-51
2024/03/16 03:47:02;;;;;;;;;;;;;;;16.19;46.31;101183.09;5034128;28;865;-49
2024/03/16 03:49:35;;;;;;;;;;;;;;;15.89;47.04;101184.94;5055255;28;1138;-48
2024/03/16 03:52:02;;;;;;;;;;;;;;;15.57;47.65;101185.13;5055760;28;1039;-49
2024/03/16 03:54:27;;;;;;;;;;;;;;;15.34;48.46;101190.06;5054391;28;1063;-50
2024/03/16 03:56:53;;;;;;;;;;;;;;;16.63;45.62;101189.13;5043322;28;1199;-47
2024/03/16 03:59:19;;;;;;;;;;;;;;;17.56;43.38;101192.66;5045158;28;1968;-48
2024/03/16 04:01:44;;;;;;;;;;;;;;;16.55;45.65;101194.09;5055514;28;1077;-50
2024/03/16 04:04:10;;;;;;;;;;;;;;;15.99;46.95;101193.19;5054927;28;1031;-48
2024/03/16 04:06:36;;;;;;;;;;;;;;;15.70;47.50;101198.50;5055016;28;1114;-52
2024/03/16 04:09:02;;;;;;;;;;;;;;;15.39;48.11;101191.50;5070760;28;1161;-48
2024/03/16 04:11:27;;;;;;;;;;;;;;;16.15;46.90;101204.53;5051162;28;922;-49
2024/03/16 04:13:53;;;;;;;;;;;;;;;17.40;43.81;101208.00;5056676;28;1055;-51
2024/03/16 04:16:18;;;;;;;;;;;;;;;16.47;45.35;101199.91;5038211;28;1048;-48
2024/03/16 04:18:44;;;;;;;;;;;;;;;15.89;46.90;101201.72;5047477;28;1989;-49
2024/03/16 04:21:09;;;;;;;;;;;;;;;15.60;47.87;101204.38;5057086;28;1173;-52
2024/03/16 04:23:35;;;;;;;;;;;;;;;15.41;48.21;101205.47;5049843;28;947;-54
2024/03/16 04:26:00;;;;;;;;;;;;;;;15.62;48.06;101206.91;5056471;28;1141;-51
2024/03/16 04:28:26;;;;;;;;;;;;;;;17.09;44.59;101201.16;5047590;28;1255;-53
2024/03/16 04:30:51;;;;;;;;;;;;;;;17.27;43.66;101206.16;5045956;28;1070;-50
2024/03/16 04:33:17;;;;;;;;;;;;;;;16.24;46.15;101208.41;5046384;28;1246;-53
2024/03/16 04:35:45;;;;;;;;;;;;;;;15.84;47.19;101214.41;5049898;28;1247;-53
2024/03/16 04:38:10;;;;;;;;;;;;;;;15.57;47.73;101211.66;5057414;28;1910;-52
2024/03/16 04:40:36;;;;;;;;;;;;;;;15.39;48.42;101217.16;5058262;28;1278;-51
2024/03/16 04:43:01;;;;;;;;;;;;;;;16.91;44.88;101218.31;5058506;28;1262;-52
2024/03/16 04:45:27;;;;;;;;;;;;;;;17.10;44.29;101223.28;5058254;28;1078;-53
2024/03/16 04:47:53;;;;;;;;;;;;;;;16.14;46.21;101223.22;5058135;28;1126;-56
2024/03/16 04:50:18;;;;;;;;;;;;;;;15.69;47.40;101221.53;5057638;28;1223;-54
2024/03/16 04:52:44;;;;;;;;;;;;;;;15.47;48.16;101221.97;5058333;28;1282;-54
2024/03/16 04:55:09;;;;;;;;;;;;;;;16.16;46.66;101219.50;5058769;28;1016;-56
2024/03/16 04:57:35;;;;;;;;;;;;;;;17.44;43.59;101222.75;5057917;28;1967;-56
2024/03/16 05:00:00;;;;;;;;;;;;;;;16.61;45.40;101225.56;5058033;28;824;-57
2024/03/16 05:02:26;;;;;;;;;;;;;;;15.98;46.75;101218.88;5058116;28;1063;-53
2024/03/16 05:04:51;;;;;;;;;;;;;;;15.68;47.40;101222.47;5058551;28;1191;-52
2024/03/16 05:07:17;;;;;;;;;;;;;;;15.42;47.92;101232.84;5057570;28;1035;-55
2024/03/16 05:09:42;;;;;;;;;;;;;;;15.99;47.07;101236.50;5057148;28;1182;-52
2024/03/16 05:12:08;;;;;;;;;;;;;;;17.36;44.33;101233.94;5057374;28;1059;-50
2024/03/16 05:14:34;;;;;;;;;;;;;;;15.88;47.28;101231.00;5057542;28;1019;-50
2024/03/16 05:16:59;;;;;;;;;;;;;;;15.11;48.61;101232.03;5057770;28;1915;-52
2024/03/16 05:19:25;;;;;;;;;;;;;;;14.84;47.99;101238.00;5056773;28;1158;-49
2024/03/16 05:21:51;;;;;;;;;;;;;;;15.83;48.21;101239.22;5057067;28;1024;-52
2024/03/16 05:24:16;;;;;;;;;;;;;;;15.45;48.16;101245.94;5056996;28;1415;-51
2024/03/16 05:26:42;;;;;;;;;;;;;;;14.92;48.45;101249.00;5057371;28;1230;-51
2024/03/16 05:29:08;;;;;;;;;;;;;;;15.97;48.04;101250.78;5057431;28;1106;-50
2024/03/16 05:31:33;;;;;;;;;;;;;;;16.06;47.21;101246.75;5089609;28;1046;-48
2024/03/16 05:33:59;;;;;;;;;;;;;;;15.14;48.37;101251.28;5057519;28;1131;-50
2024/03/16 05:36:24;;;;;;;;;;;;;;;14.81;47.97;101255.78;5056669;28;1019;-45
2024/03/16 05:38:50;;;;;;;;;;;;;;;14.71;47.01;101251.06;5057441;28;1978;-48
2024/03/16 05:41:15;;;;;;;;;;;;;;;14.66;48.26;101254.81;5057669;28;1995;-46
2024/03/16 05:43:44;;;;;;;;;;;;;;;16.59;47.30;101254.88;5057341;28;1139;-50
2024/03/16 05:46:10;;;;;;;;;;;;;;;15.26;48.78;101257.66;5057356;28;1121;-49
2024/03/16 05:48:35;;;;;;;;;;;;;;;14.84;48.19;101260.06;5056943;28;1058;-47
2024/03/16 05:51:07;;;;;;;;;;;;;;;15.84;48.60;101258.66;5057840;28;1071;-46
2024/03/16 05:53:32;;;;;;;;;;;;;;;15.61;48.39;101252.97;5057123;28;1031;-47
2024/03/16 05:55:58;;;;;;;;;;;;;;;15.00;48.69;101249.41;5056953;28;1081;-48
2024/03/16 05:58:23;;;;;;;;;;;;;;;14.78;48.03;101247.16;5056624;28;1973;-49
2024/03/16 06:00:49;;;;;;;;;;;;;;;16.01;47.92;101249.69;5056386;28;969;-47
2024/03/16 06:03:14;;;;;;;;;;;;;;;16.13;47.56;101242.75;5057016;28;1031;-48
2024/03/16 06:05:43;;;;;;;;;;;;;;;15.24;48.45;101250.72;5057110;28;1047;-49
2024/03/16 06:08:10;;;;;;;;;;;;;;;17.02;46.25;101256.50;5056510;28;995;-48
2024/03/16 06:10:36;;;;;;;;;;;;;;;15.71;48.08;101253.25;5063297;28;2689;-49
2024/03/16 06:13:02;;;;;;;;;;;;;;;15.18;48.25;101258.09;5056235;28;860;-51
2024/03/16 06:15:28;;;;;;;;;;;;;;;15.04;47.46;101258.06;5056929;28;1047;-48
2024/03/16 06:17:53;;;;;;;;;;;;;;;14.92;47.60;101262.25;5056713;28;1973;-48
2024/03/16 06:20:19;;;;;;;;;;;;;;;16.83;46.92;101264.84;5056602;28;1129;-49
2024/03/16 06:22:45;;;;;;;;;;;;;;;15.60;48.40;101268.00;5056675;28;1048;-50
2024/03/16 06:25:12;;;;;;;;;;;;;;;15.22;48.63;101276.47;5056383;28;916;-48
2024/03/16 06:27:43;;;;;;;;;;;;;;;16.74;46.43;101262.78;5055726;28;1031;-49
2024/03/16 06:30:13;;;;;;;;;;;;;;;15.46;48.45;101278.59;5056207;28;1090;-46
2024/03/16 06:32:44;;;;;;;;;;;;;;;15.85;48.83;101263.84;5056461;28;1039;-49
2024/03/16 06:35:10;;;;;;;;;;;;;;;15.73;48.47;101268.13;5052567;28;1171;-48
2024/03/16 06:37:36;;;;;;;;;;;;;;;15.22;48.37;101269.38;5055307;28;1957;-49
2024/03/16 06:40:02;;;;;;;;;;;;;;;16.55;46.83;101273.78;5052768;28;2415;-47
2024/03/16 06:42:28;;;;;;;;;;;;;;;15.44;48.32;101273.41;5035776;28;1099;-48
2024/03/16 06:44:53;;;;;;;;;;;;;;;16.02;48.72;101269.97;5039035;28;1039;-48
2024/03/16 06:47:19;;;;;;;;;;;;;;;16.10;47.69;101269.50;5046913;28;1075;-47
2024/03/16 06:49:44;;;;;;;;;;;;;;;15.36;47.96;101279.16;5042528;28;1062;-47
2024/03/16 06:52:10;;;;;;;;;;;;;;;15.08;47.79;101271.97;5055454;28;1094;-46
2024/03/16 06:54:35;;;;;;;;;;;;;;;15.57;48.65;101278.81;5042258;28;1078;-47
2024/03/16 06:57:01;;;;;;;;;;;;;;;15.74;47.98;101276.94;5046530;28;1094;-50
2024/03/16 06:59:26;;;;;;;;;;;;;;;15.21;48.28;101286.22;5036144;28;1949;-50
2024/03/16 07:01:52;;;;;;;;;;;;;;;14.93;47.53;101283.34;5047360;28;1167;-47
2024/03/16 07:04:18;;;;;;;;;;;;;;;15.22;48.38;101289.72;5051496;28;1106;-48
2024/03/16 07:06:44;;;;;;;;;;;;;;;16.14;47.37;101286.91;5055981;28;1016;-47
2024/03/16 07:09:11;;;;;;;;;;;;;;;15.20;48.29;101297.75;5055367;28;995;-53
2024/03/16 07:11:36;;;;;;;;;;;;;;;15.02;48.04;101302.31;5047050;28;2840;-48
2024/03/16 07:14:02;;;;;;;;;;;;;;;14.97;48.23;101299.94;5037515;28;1000;-48
2024/03/16 07:16:27;;;;;;;;;;;;;;;16.70;46.69;101304.63;5043777;28;1516;-48
2024/03/16 07:18:53;;;;;;;;;;;;;;;15.37;48.49;101312.69;5043807;28;1910;-49
2024/03/16 07:21:21;;;;;;;;;;;;;;;16.56;47.38;101310.00;5044429;28;1012;-49
2024/03/16 07:23:49;;;;;;;;;;;;;;;16.21;47.68;101308.63;5053393;28;1042;-48
2024/03/16 07:26:15;;;;;;;;;;;;;;;15.43;48.47;101311.47;5036210;28;1190;-48
2024/03/16 07:28:40;;;;;;;;;;;;;;;15.24;47.79;101322.28;5055523;28;1051;-47
2024/03/16 07:31:06;;;;;;;;;;;;;;;15.10;48.29;101325.75;5055795;28;1023;-48
2024/03/16 07:33:32;;;;;;;;;;;;;;;16.16;47.73;101320.38;5048645;28;1103;-50
2024/03/16 07:35:58;;;;;;;;;;;;;;;15.26;48.49;101318.63;5046740;28;1088;-45
2024/03/16 07:38:24;;;;;;;;;;;;;;;15.05;48.14;101321.56;5055332;28;1964;-48
2024/03/16 07:40:49;;;;;;;;;;;;;;;14.83;47.37;101319.25;5055593;28;1952;-44
2024/03/16 07:43:15;;;;;;;;;;;;;;;14.67;47.11;101320.09;5055565;28;1058;-50
2024/03/16 07:45:42;;;;;;;;;;;;;;;16.57;47.30;101322.31;5055408;28;1165;-49
2024/03/16 07:48:11;;;;;;;;;;;;;;;15.39;48.55;101318.75;5058454;28;1121;-46
2024/03/16 07:50:37;;;;;;;;;;;;;;;15.16;48.64;101323.56;5059375;28;1043;-48
2024/03/16 07:53:03;;;;;;;;;;;;;;;16.53;47.19;101317.19;5059577;28;1135;-52
2024/03/16 07:55:29;;;;;;;;;;;;;;;15.31;48.77;101318.34;5059163;28;1027;-46
2024/03/16 07:57:55;;;;;;;;;;;;;;;15.08;48.15;101317.03;5059294;28;1983;-46
2024/03/16 08:00:20;;;;;;;;;;;;;;;14.90;47.45;101317.13;5059064;28;1112;-49
2024/03/16 08:02:46;;;;;;;;;;;;;;;16.07;48.03;101315.63;5059001;28;1116;-48
2024/03/16 08:05:11;;;;;;;;;;;;;;;15.85;48.16;101319.56;5058991;28;1098;-50
2024/03/16 08:07:41;;;;;;;;;;;;;;;15.13;48.43;101317.63;5059243;28;1031;-48
2024/03/16 08:10:07;;;;;;;;;;;;;;;14.88;48.05;101319.84;5058858;28;2126;-49
2024/03/16 08:12:32;;;;;;;;;;;;;;;16.58;47.66;101319.56;5058888;28;1155;-51
2024/03/16 08:14:58;;;;;;;;;;;;;;;15.76;48.16;101320.16;5058661;28;1127;-48
2024/03/16 08:17:23;;;;;;;;;;;;;;;15.26;48.34;101315.97;5058541;28;1986;-50
2024/03/16 08:19:50;;;;;;;;;;;;;;;15.03;47.73;101309.34;5058785;28;1026;-47
2024/03/16 08:22:15;;;;;;;;;;;;;;;15.82;48.84;101311.81;5058622;28;1039;-47
2024/03/16 08:24:41;;;;;;;;;;;;;;;15.66;48.32;101314.53;5058513;28;1151;-49
2024/03/16 08:27:07;;;;;;;;;;;;;;;15.08;48.50;101306.44;5058718;28;1198;-48
2024/03/16 08:29:32;;;;;;;;;;;;;;;15.03;48.23;101307.53;5058601;28;1055;-46
2024/03/16 08:31:58;;;;;;;;;;;;;;;16.97;46.66;101308.25;5058465;28;1119;-44
2024/03/16 08:34:25;;;;;;;;;;;;;;;15.75;48.11;101306.03;5058217;28;1085;-47
2024/03/16 08:36:50;;;;;;;;;;;;;;;15.22;48.66;101311.78;5058230;28;1007;-46
2024/03/16 08:39:16;;;;;;;;;;;;;;;15.04;47.87;101309.25;5058298;28;1969;-48
2024/03/16 08:41:41;;;;;;;;;;;;;;;16.35;47.96;101307.78;5058563;28;2667;-48
2024/03/16 08:44:07;;;;;;;;;;;;;;;16.14;47.52;101306.38;5058246;28;1012;-49
2024/03/16 08:46:33;;;;;;;;;;;;;;;15.30;48.56;101314.84;5057127;28;1103;-50
2024/03/16 08:48:58;;;;;;;;;;;;;;;15.03;47.92;101310.19;5056223;28;1031;-52
2024/03/16 08:51:24;;;;;;;;;;;;;;;15.86;48.50;101309.81;5058051;28;1107;-50
2024/03/16 08:53:50;;;;;;;;;;;;;;;15.32;48.45;101306.78;5057788;28;1125;-46
2024/03/16 08:56:15;;;;;;;;;;;;;;;16.49;47.58;101297.13;5058092;28;1122;-49
2024/03/16 08:58:42;;;;;;;;;;;;;;;16.87;46.23;101298.25;5056983;28;1973;-48
2024/03/16 09:01:08;;;;;;;;;;;;;;;15.65;48.00;101304.84;5058055;28;1126;-50
2024/03/16 09:03:34;;;;;;;;;;;;;;;15.33;48.18;101307.66;5058133;28;1075;-49
2024/03/16 09:06:01;;;;;;;;;;;;;;;15.38;48.62;101298.47;5057798;28;1086;-48
2024/03/16 09:08:27;;;;;;;;;;;;;;;17.22;45.98;101296.88;5057590;28;1051;-48
2024/03/16 09:10:53;;;;;;;;;;;;;;;15.71;48.66;101301.00;5057463;28;2398;-47
2024/03/16 09:13:19;;;;;;;;;;;;;;;15.31;48.10;101291.84;5057915;28;1107;-48
2024/03/16 09:15:44;;;;;;;;;;;;;;;16.68;47.53;101297.75;5048734;28;1155;-49
2024/03/16 09:18:10;;;;;;;;;;;;;;;16.14;48.00;101295.75;5047801;28;1898;-48
2024/03/16 09:20:35;;;;;;;;;;;;;;;15.49;48.44;101292.53;5048668;28;1356;-50
2024/03/16 09:23:01;;;;;;;;;;;;;;;16.34;48.17;101290.13;5053840;28;1079;-46
2024/03/16 09:25:26;;;;;;;;;;;;;;;16.34;47.50;101290.97;5057368;28;1090;-48
2024/03/16 09:27:52;;;;;;;;;;;;;;;15.60;48.35;101291.88;5056401;28;1079;-50
2024/03/16 09:30:18;;;;;;;;;;;;;;;15.33;47.77;101292.56;5056409;28;1079;-49
2024/03/16 09:32:44;;;;;;;;;;;;;;;15.15;47.33;101294.50;5057459;28;975;-48
2024/03/16 09:35:12;;;;;;;;;;;;;;;15.48;48.49;101296.13;5057111;28;1039;-44
2024/03/16 09:37:38;;;;;;;;;;;;;;;16.81;46.94;101293.34;5057074;28;1898;-50
2024/03/16 09:40:09;;;;;;;;;;;;;;;15.60;48.22;101299.84;5057585;28;2659;-49
2024/03/16 09:42:37;;;;;;;;;;;;;;;15.18;48.18;101292.53;5057304;28;999;-51
2024/03/16 09:45:06;;;;;;;;;;;;;;;15.14;47.11;101291.03;5057659;28;1087;-48
2024/03/16 09:47:32;;;;;;;;;;;;;;;16.89;47.23;101293.69;5055920;28;1119;-53
2024/03/16 09:49:57;;;;;;;;;;;;;;;16.02;48.06;101292.06;5056855;28;1452;-51
2024/03/16 09:52:23;;;;;;;;;;;;;;;15.38;48.48;101294.97;5056824;28;1003;-50
2024/03/16 09:54:49;;;;;;;;;;;;;;;15.19;47.79;101288.09;5056119;28;1219;-49
2024/03/16 09:57:15;;;;;;;;;;;;;;;16.17;48.23;101284.06;5055392;28;1906;-50
2024/03/16 09:59:48;;;;;;;;;;;;;;;15.47;48.57;101286.47;5056779;28;1174;-50
2024/03/16 10:02:20;;;;;;;;;;;;;;;15.36;48.98;101291.56;5055237;28;1131;-48
2024/03/16 10:04:46;;;;;;;;;;;;;;;16.44;47.13;101285.06;5057116;28;1055;-52
2024/03/16 10:07:12;;;;;;;;;;;;;;;15.41;48.85;101286.84;5056178;28;987;-53
2024/03/16 10:09:47;;;;;;;;;;;;;;;15.69;49.00;101294.94;5056861;28;999;-50
2024/03/16 10:12:12;;;;;;;;;;;;;;;16.73;46.56;101285.84;5076113;28;984;-48
2024/03/16 10:14:39;;;;;;;;;;;;;;;15.57;48.30;101289.41;5055304;28;893;-50
2024/03/16 10:17:06;;;;;;;;;;;;;;;15.22;48.45;101293.22;5056955;28;1135;-47
2024/03/16 10:19:32;;;;;;;;;;;;;;;16.18;47.63;101293.75;5054875;28;1905;-50
2024/03/16 10:21:57;;;;;;;;;;;;;;;15.39;48.11;101286.06;5056718;28;1222;-47
2024/03/16 10:24:23;;;;;;;;;;;;;;;15.13;47.79;101291.94;5056183;28;1102;-50
2024/03/16 10:26:49;;;;;;;;;;;;;;;15.07;47.24;101289.66;5055973;28;864;-49
2024/03/16 10:29:19;;;;;;;;;;;;;;;15.24;47.73;101294.00;5056564;28;1062;-48
2024/03/16 10:31:45;;;;;;;;;;;;;;;16.36;47.11;101282.91;5056232;28;1143;-51
2024/03/16 10:34:11;;;;;;;;;;;;;;;15.31;48.50;101286.53;5056289;28;1027;-46
2024/03/16 10:36:37;;;;;;;;;;;;;;;15.10;47.79;101284.19;5056522;28;1163;-51
2024/03/16 10:39:03;;;;;;;;;;;;;;;14.91;47.38;101285.25;5055954;28;1894;-50
2024/03/16 10:41:29;;;;;;;;;;;;;;;16.64;46.58;101282.00;5054619;28;2830;-47
2024/03/16 10:43:54;;;;;;;;;;;;;;;15.43;48.42;101275.19;5056482;28;1186;-49
2024/03/16 10:46:20;;;;;;;;;;;;;;;15.12;47.88;101279.66;5054864;28;1090;-48
2024/03/16 10:48:46;;;;;;;;;;;;;;;16.03;48.47;101274.34;5056205;28;1171;-47
2024/03/16 10:51:15;;;;;;;;;;;;;;;15.69;48.28;101271.06;5055783;28;865;-48
2024/03/16 10:53:41;;;;;;;;;;;;;;;15.21;48.03;101278.28;5055942;28;1027;-49
2024/03/16 10:56:06;;;;;;;;;;;;;;;15.04;47.38;101269.50;5054150;28;1214;-48
2024/03/16 10:58:32;;;;;;;;;;;;;;;14.91;46.83;101265.88;5054699;28;1970;-51
2024/03/16 11:01:15;;;;;;;;;;;;;;;16.26;47.49;101270.22;5056355;28;1096;-49
2024/03/16 11:03:42;;;;;;;;;;;;;;;15.50;48.53;101265.06;5054395;28;1008;-48
2024/03/16 11:06:11;;;;;;;;;;;;;;;15.08;48.43;101262.22;5054804;28;1115;-51
2024/03/16 11:08:45;;;;;;;;;;;;;;;14.93;47.34;101248.94;5056406;28;988;-50
2024/03/16 11:11:23;;;;;;;;;;;;;;;16.59;47.04;101252.22;5055458;28;2439;-49
2024/03/16 11:13:55;;;;;;;;;;;;;;;15.40;48.47;101255.94;5055721;28;1008;-49
2024/03/16 11:16:30;;;;;;;;;;;;;;;15.00;48.16;101256.50;5056038;28;1027;-47
2024/03/16 11:18:56;;;;;;;;;;;;;;;14.90;47.71;101248.25;5056013;28;1981;-49
2024/03/16 11:21:22;;;;;;;;;;;;;;;16.82;46.62;101241.88;5056065;28;1246;-49
2024/03/16 11:23:48;;;;;;;;;;;;;;;15.39;48.68;101243.66;5059974;28;995;-49
2024/03/16 11:26:26;;;;;;;;;;;;;;;15.03;48.36;101241.28;5059412;28;1014;-49
2024/03/16 11:28:51;;;;;;;;;;;;;;;16.08;48.05;101229.75;5060062;28;1082;-50
2024/03/16 11:31:28;;;;;;;;;;;;;;;16.71;46.48;101237.28;5059321;28;1257;-51
2024/03/16 11:33:54;;;;;;;;;;;;;;;15.52;48.03;101234.00;5059975;28;1116;-51
2024/03/16 11:36:19;;;;;;;;;;;;;;;15.20;48.55;101233.31;5059147;28;1145;-48
2024/03/16 11:38:53;;;;;;;;;;;;;;;17.22;46.17;101227.75;5059356;28;1897;-49
2024/03/16 11:41:19;;;;;;;;;;;;;;;15.78;48.07;101217.47;5065612;28;2878;-46
2024/03/16 11:43:48;;;;;;;;;;;;;;;15.29;47.80;101217.72;5059750;28;992;-51
2024/03/16 11:46:17;;;;;;;;;;;;;;;15.14;48.36;101221.25;5059657;28;1122;-49
2024/03/16 11:48:43;;;;;;;;;;;;;;;16.28;47.63;101215.22;5058945;28;1109;-50
2024/03/16 11:51:12;;;;;;;;;;;;;;;15.41;48.47;101213.44;5058180;28;873;-47
2024/03/16 11:53:39;;;;;;;;;;;;;;;15.11;47.93;101213.50;5058859;28;1023;-50
2024/03/16 11:56:07;;;;;;;;;;;;;;;16.88;46.67;101212.25;5059659;28;1051;-48
2024/03/16 11:58:33;;;;;;;;;;;;;;;15.54;48.00;101220.66;5059357;28;1898;-49
2024/03/16 12:00:58;;;;;;;;;;;;;;;15.24;47.97;101218.91;5059542;28;1035;-47
2024/03/16 12:03:24;;;;;;;;;;;;;;;15.00;47.32;101224.72;5057650;28;1048;-51
2024/03/16 12:05:51;;;;;;;;;;;;;;;16.95;46.63;101219.81;5058194;28;1079;-45
2024/03/16 12:08:16;;;;;;;;;;;;;;;15.58;48.10;101214.22;5058927;28;1074;-51
2024/03/16 12:10:42;;;;;;;;;;;;;;;15.20;47.72;101217.41;5058788;28;2466;-46
2024/03/16 12:13:07;;;;;;;;;;;;;;;16.64;46.91;101214.72;5091266;28;1071;-48
2024/03/16 12:15:35;;;;;;;;;;;;;;;15.49;48.59;101213.00;5058735;28;892;-50
2024/03/16 12:18:02;;;;;;;;;;;;;;;15.17;47.92;101213.13;5058560;28;1971;-49
2024/03/16 12:20:27;;;;;;;;;;;;;;;16.48;47.46;101202.44;5058786;28;1011;-49
2024/03/16 12:22:56;;;;;;;;;;;;;;;15.71;48.06;101201.06;5058659;28;1099;-50
2024/03/16 12:25:25;;;;;;;;;;;;;;;15.20;48.25;101207.63;5057563;28;1123;-51
2024/03/16 12:27:51;;;;;;;;;;;;;;;15.03;47.41;101206.00;5058219;28;1103;-49
2024/03/16 12:30:16;;;;;;;;;;;;;;;15.63;48.27;101206.00;5058749;28;1143;-47
2024/03/16 12:32:42;;;;;;;;;;;;;;;16.07;47.54;101204.19;5058357;28;1035;-50
2024/03/16 12:35:09;;;;;;;;;;;;;;;15.38;48.16;101203.03;5057478;28;1159;-48
2024/03/16 12:37:34;;;;;;;;;;;;;;;15.10;47.61;101209.16;5045218;28;1914;-51
2024/03/16 12:40:00;;;;;;;;;;;;;;;14.99;47.44;101202.69;5041749;28;2495;-49
2024/03/16 12:42:26;;;;;;;;;;;;;;;16.44;47.06;101205.41;5038590;28;1080;-50